sensor_id;sensor_type;location;lat;lon;timestamp;P1;durP1;ratioP1;P2;durP2;ratioP2
34317;SDS011;20582;52.196;20.952;2023-07-29T00:02:08;27.90;;;16.35;;
34317;SDS011;20582;52.196;20.952;2023-07-29T00:04:35;27.70;;;16.42;;
34317;SDS011;20582;52.196;20.952;2023-07-29T00:07:01;24.55;;;16.30;;
34317;SDS011;20582;52.196;20.952;2023-07-29T00:09:27;24.23;;;16.17;;
34317;SDS011;20582;52.196;20.952;2023-07-29T00:11:53;26.60;;;16.42;;
34317;SDS011;20582;52.196;20.952;2023-07-29T00:14:19;28.05;;;16.95;;
34317;SDS011;20582;52.196;20.952;2023-07-29T00:16:45;27.15;;;16.30;;
34317;SDS011;20582;52.196;20.952;2023-07-29T00:19:11;30.27;;;16.95;;
34317;SDS011;20582;52.196;20.952;2023-07-29T00:21:37;30.08;;;17.80;;
34317;SDS011;20582;52.196;20.952;2023-07-29T00:24:03;27.98;;;17.10;;
34317;SDS011;20582;52.196;20.952;2023-07-29T00:26:29;30.52;;;18.52;;
34317;SDS011;20582;52.196;20.952;2023-07-29T00:28:58;35.15;;;19.80;;
34317;SDS011;20582;52.196;20.952;2023-07-29T00:31:24;35.55;;;21.40;;
34317;SDS011;20582;52.196;20.952;2023-07-29T00:33:50;34.83;;;19.02;;
34317;SDS011;20582;52.196;20.952;2023-07-29T00:36:17;37.50;;;20.77;;
34317;SDS011;20582;52.196;20.952;2023-07-29T00:38:43;32.10;;;20.52;;
34317;SDS011;20582;52.196;20.952;2023-07-29T00:41:09;32.95;;;21.35;;
34317;SDS011;20582;52.196;20.952;2023-07-29T00:43:38;31.70;;;20.42;;
34317;SDS011;20582;52.196;20.952;2023-07-29T00:46:04;33.35;;;21.17;;
34317;SDS011;20582;52.196;20.952;2023-07-29T00:48:30;34.22;;;21.67;;
34317;SDS011;20582;52.196;20.952;2023-07-29T00:50:56;32.60;;;21.85;;
34317;SDS011;20582;52.196;20.952;2023-07-29T00:53:22;34.95;;;22.25;;
34317;SDS011;20582;52.196;20.952;2023-07-29T00:55:48;39.88;;;22.45;;
34317;SDS011;20582;52.196;20.952;2023-07-29T00:58:14;33.88;;;20.65;;
34317;SDS011;20582;52.196;20.952;2023-07-29T01:00:40;31.73;;;20.67;;
34317;SDS011;20582;52.196;20.952;2023-07-29T01:03:07;31.98;;;20.90;;
34317;SDS011;20582;52.196;20.952;2023-07-29T01:05:36;30.88;;;20.00;;
34317;SDS011;20582;52.196;20.952;2023-07-29T01:08:10;37.85;;;21.02;;
34317;SDS011;20582;52.196;20.952;2023-07-29T01:13:20;33.53;;;20.23;;
34317;SDS011;20582;52.196;20.952;2023-07-29T01:18:18;30.48;;;19.65;;
34317;SDS011;20582;52.196;20.952;2023-07-29T01:20:46;36.75;;;21.10;;
34317;SDS011;20582;52.196;20.952;2023-07-29T01:23:13;42.53;;;22.83;;
34317;SDS011;20582;52.196;20.952;2023-07-29T01:25:39;42.55;;;23.15;;
34317;SDS011;20582;52.196;20.952;2023-07-29T01:28:05;48.50;;;24.02;;
34317;SDS011;20582;52.196;20.952;2023-07-29T01:30:33;40.78;;;23.02;;
34317;SDS011;20582;52.196;20.952;2023-07-29T01:35:31;43.47;;;22.27;;
34317;SDS011;20582;52.196;20.952;2023-07-29T01:38:00;37.95;;;22.23;;
34317;SDS011;20582;52.196;20.952;2023-07-29T01:40:27;47.92;;;24.40;;
34317;SDS011;20582;52.196;20.952;2023-07-29T01:42:53;45.05;;;23.90;;
34317;SDS011;20582;52.196;20.952;2023-07-29T01:45:22;43.25;;;24.80;;
34317;SDS011;20582;52.196;20.952;2023-07-29T01:47:48;40.72;;;23.80;;
34317;SDS011;20582;52.196;20.952;2023-07-29T01:50:14;36.75;;;21.80;;
34317;SDS011;20582;52.196;20.952;2023-07-29T01:52:40;40.78;;;22.38;;
34317;SDS011;20582;52.196;20.952;2023-07-29T01:55:06;38.78;;;21.27;;
34317;SDS011;20582;52.196;20.952;2023-07-29T01:57:32;37.30;;;21.08;;
34317;SDS011;20582;52.196;20.952;2023-07-29T01:59:58;37.75;;;21.85;;
34317;SDS011;20582;52.196;20.952;2023-07-29T02:02:24;34.72;;;20.90;;
34317;SDS011;20582;52.196;20.952;2023-07-29T02:04:50;37.17;;;20.48;;
34317;SDS011;20582;52.196;20.952;2023-07-29T02:07:19;36.63;;;21.23;;
34317;SDS011;20582;52.196;20.952;2023-07-29T02:09:45;34.53;;;20.42;;
34317;SDS011;20582;52.196;20.952;2023-07-29T02:12:11;39.67;;;22.67;;
34317;SDS011;20582;52.196;20.952;2023-07-29T02:14:37;33.95;;;21.65;;
34317;SDS011;20582;52.196;20.952;2023-07-29T02:17:03;40.97;;;21.73;;
34317;SDS011;20582;52.196;20.952;2023-07-29T02:19:29;36.15;;;21.98;;
34317;SDS011;20582;52.196;20.952;2023-07-29T02:21:55;35.42;;;21.83;;
34317;SDS011;20582;52.196;20.952;2023-07-29T02:24:21;33.38;;;21.08;;
34317;SDS011;20582;52.196;20.952;2023-07-29T02:26:47;34.88;;;21.15;;
34317;SDS011;20582;52.196;20.952;2023-07-29T02:29:13;34.15;;;20.65;;
34317;SDS011;20582;52.196;20.952;2023-07-29T02:31:39;37.38;;;22.38;;
34317;SDS011;20582;52.196;20.952;2023-07-29T02:34:05;33.38;;;20.80;;
34317;SDS011;20582;52.196;20.952;2023-07-29T02:36:31;37.88;;;21.80;;
34317;SDS011;20582;52.196;20.952;2023-07-29T02:38:57;38.95;;;22.40;;
34317;SDS011;20582;52.196;20.952;2023-07-29T02:41:23;40.10;;;22.65;;
34317;SDS011;20582;52.196;20.952;2023-07-29T02:43:49;41.88;;;22.45;;
34317;SDS011;20582;52.196;20.952;2023-07-29T02:46:16;37.10;;;21.80;;
34317;SDS011;20582;52.196;20.952;2023-07-29T02:48:42;43.40;;;24.63;;
34317;SDS011;20582;52.196;20.952;2023-07-29T02:51:08;72.53;;;25.33;;
34317;SDS011;20582;52.196;20.952;2023-07-29T02:53:34;69.25;;;25.40;;
34317;SDS011;20582;52.196;20.952;2023-07-29T02:56:02;73.18;;;25.65;;
34317;SDS011;20582;52.196;20.952;2023-07-29T02:58:28;56.53;;;25.30;;
34317;SDS011;20582;52.196;20.952;2023-07-29T03:00:59;60.38;;;27.02;;
34317;SDS011;20582;52.196;20.952;2023-07-29T03:03:26;78.70;;;27.35;;
34317;SDS011;20582;52.196;20.952;2023-07-29T03:05:57;55.05;;;25.63;;
34317;SDS011;20582;52.196;20.952;2023-07-29T03:08:23;57.67;;;24.75;;
34317;SDS011;20582;52.196;20.952;2023-07-29T03:10:49;97.40;;;25.15;;
34317;SDS011;20582;52.196;20.952;2023-07-29T03:13:15;93.75;;;25.92;;
34317;SDS011;20582;52.196;20.952;2023-07-29T03:15:40;97.25;;;26.77;;
34317;SDS011;20582;52.196;20.952;2023-07-29T03:18:06;87.07;;;26.35;;
34317;SDS011;20582;52.196;20.952;2023-07-29T03:20:32;64.07;;;26.05;;
34317;SDS011;20582;52.196;20.952;2023-07-29T03:22:58;58.42;;;26.58;;
34317;SDS011;20582;52.196;20.952;2023-07-29T03:25:24;78.57;;;26.40;;
34317;SDS011;20582;52.196;20.952;2023-07-29T03:27:50;56.65;;;24.27;;
34317;SDS011;20582;52.196;20.952;2023-07-29T03:30:19;147.98;;;28.27;;
34317;SDS011;20582;52.196;20.952;2023-07-29T03:32:46;61.58;;;25.75;;
34317;SDS011;20582;52.196;20.952;2023-07-29T03:35:12;142.98;;;26.33;;
34317;SDS011;20582;52.196;20.952;2023-07-29T03:37:38;84.82;;;26.35;;
34317;SDS011;20582;52.196;20.952;2023-07-29T03:40:05;157.43;;;26.52;;
34317;SDS011;20582;52.196;20.952;2023-07-29T03:42:31;97.88;;;25.67;;
34317;SDS011;20582;52.196;20.952;2023-07-29T03:44:57;102.60;;;26.05;;
34317;SDS011;20582;52.196;20.952;2023-07-29T03:47:23;75.03;;;25.67;;
34317;SDS011;20582;52.196;20.952;2023-07-29T03:49:49;100.22;;;25.67;;
34317;SDS011;20582;52.196;20.952;2023-07-29T03:52:15;151.27;;;28.88;;
34317;SDS011;20582;52.196;20.952;2023-07-29T03:54:41;235.38;;;31.60;;
34317;SDS011;20582;52.196;20.952;2023-07-29T03:57:07;245.23;;;30.42;;
34317;SDS011;20582;52.196;20.952;2023-07-29T03:59:33;318.55;;;35.03;;
34317;SDS011;20582;52.196;20.952;2023-07-29T04:01:59;290.75;;;36.13;;
34317;SDS011;20582;52.196;20.952;2023-07-29T04:04:25;104.60;;;26.90;;
34317;SDS011;20582;52.196;20.952;2023-07-29T04:06:51;181.80;;;31.00;;
34317;SDS011;20582;52.196;20.952;2023-07-29T04:09:17;112.88;;;26.67;;
34317;SDS011;20582;52.196;20.952;2023-07-29T04:11:43;162.45;;;30.35;;
34317;SDS011;20582;52.196;20.952;2023-07-29T04:14:09;93.32;;;27.02;;
34317;SDS011;20582;52.196;20.952;2023-07-29T04:16:35;134.55;;;30.55;;
34317;SDS011;20582;52.196;20.952;2023-07-29T04:19:00;105.32;;;28.23;;
34317;SDS011;20582;52.196;20.952;2023-07-29T04:21:26;71.03;;;26.45;;
34317;SDS011;20582;52.196;20.952;2023-07-29T04:23:52;83.03;;;26.55;;
34317;SDS011;20582;52.196;20.952;2023-07-29T04:26:18;53.42;;;26.45;;
34317;SDS011;20582;52.196;20.952;2023-07-29T04:28:44;75.90;;;26.45;;
34317;SDS011;20582;52.196;20.952;2023-07-29T04:31:10;67.82;;;26.52;;
34317;SDS011;20582;52.196;20.952;2023-07-29T04:33:36;87.22;;;25.35;;
34317;SDS011;20582;52.196;20.952;2023-07-29T04:36:02;98.15;;;25.35;;
34317;SDS011;20582;52.196;20.952;2023-07-29T04:38:32;91.25;;;23.85;;
34317;SDS011;20582;52.196;20.952;2023-07-29T04:40:59;49.85;;;23.75;;
34317;SDS011;20582;52.196;20.952;2023-07-29T04:43:27;66.88;;;23.65;;
34317;SDS011;20582;52.196;20.952;2023-07-29T04:45:53;51.78;;;21.70;;
34317;SDS011;20582;52.196;20.952;2023-07-29T04:48:20;86.05;;;23.33;;
34317;SDS011;20582;52.196;20.952;2023-07-29T04:50:46;88.43;;;23.25;;
34317;SDS011;20582;52.196;20.952;2023-07-29T04:53:12;48.50;;;22.35;;
34317;SDS011;20582;52.196;20.952;2023-07-29T04:55:40;82.70;;;23.45;;
34317;SDS011;20582;52.196;20.952;2023-07-29T04:58:07;45.22;;;22.17;;
34317;SDS011;20582;52.196;20.952;2023-07-29T05:00:33;74.05;;;23.40;;
34317;SDS011;20582;52.196;20.952;2023-07-29T05:02:59;60.70;;;22.52;;
34317;SDS011;20582;52.196;20.952;2023-07-29T05:05:26;30.95;;;21.33;;
34317;SDS011;20582;52.196;20.952;2023-07-29T05:07:52;37.65;;;20.98;;
34317;SDS011;20582;52.196;20.952;2023-07-29T05:10:18;27.35;;;20.30;;
34317;SDS011;20582;52.196;20.952;2023-07-29T05:12:44;26.83;;;20.25;;
34317;SDS011;20582;52.196;20.952;2023-07-29T05:15:10;29.60;;;20.38;;
34317;SDS011;20582;52.196;20.952;2023-07-29T05:17:36;26.10;;;19.67;;
34317;SDS011;20582;52.196;20.952;2023-07-29T05:20:03;25.63;;;19.42;;
34317;SDS011;20582;52.196;20.952;2023-07-29T05:22:29;26.25;;;20.77;;
34317;SDS011;20582;52.196;20.952;2023-07-29T05:24:55;25.77;;;19.27;;
34317;SDS011;20582;52.196;20.952;2023-07-29T05:27:21;25.65;;;19.80;;
34317;SDS011;20582;52.196;20.952;2023-07-29T05:29:47;25.02;;;19.35;;
34317;SDS011;20582;52.196;20.952;2023-07-29T05:32:13;24.83;;;18.50;;
34317;SDS011;20582;52.196;20.952;2023-07-29T05:34:39;23.58;;;18.70;;
34317;SDS011;20582;52.196;20.952;2023-07-29T05:37:04;22.60;;;18.85;;
34317;SDS011;20582;52.196;20.952;2023-07-29T05:39:31;25.92;;;20.95;;
34317;SDS011;20582;52.196;20.952;2023-07-29T05:41:58;23.50;;;20.35;;
34317;SDS011;20582;52.196;20.952;2023-07-29T05:44:24;25.05;;;19.55;;
34317;SDS011;20582;52.196;20.952;2023-07-29T05:46:50;24.40;;;20.25;;
34317;SDS011;20582;52.196;20.952;2023-07-29T05:49:16;23.60;;;18.10;;
34317;SDS011;20582;52.196;20.952;2023-07-29T05:51:42;25.15;;;19.90;;
34317;SDS011;20582;52.196;20.952;2023-07-29T05:54:08;24.17;;;19.88;;
34317;SDS011;20582;52.196;20.952;2023-07-29T05:56:34;23.60;;;19.67;;
34317;SDS011;20582;52.196;20.952;2023-07-29T05:59:00;22.42;;;20.00;;
34317;SDS011;20582;52.196;20.952;2023-07-29T06:01:26;24.58;;;19.75;;
34317;SDS011;20582;52.196;20.952;2023-07-29T06:03:52;22.85;;;19.85;;
34317;SDS011;20582;52.196;20.952;2023-07-29T06:06:18;25.42;;;20.52;;
34317;SDS011;20582;52.196;20.952;2023-07-29T06:08:44;24.15;;;20.10;;
34317;SDS011;20582;52.196;20.952;2023-07-29T06:11:10;21.45;;;19.00;;
34317;SDS011;20582;52.196;20.952;2023-07-29T06:13:36;24.00;;;19.63;;
34317;SDS011;20582;52.196;20.952;2023-07-29T06:16:02;23.08;;;19.33;;
34317;SDS011;20582;52.196;20.952;2023-07-29T06:18:28;24.58;;;19.73;;
34317;SDS011;20582;52.196;20.952;2023-07-29T06:20:54;20.85;;;17.33;;
34317;SDS011;20582;52.196;20.952;2023-07-29T06:23:20;22.48;;;18.08;;
34317;SDS011;20582;52.196;20.952;2023-07-29T06:25:46;20.00;;;16.42;;
34317;SDS011;20582;52.196;20.952;2023-07-29T06:28:12;18.73;;;16.70;;
34317;SDS011;20582;52.196;20.952;2023-07-29T06:30:38;17.88;;;15.98;;
34317;SDS011;20582;52.196;20.952;2023-07-29T06:33:03;18.80;;;15.07;;
34317;SDS011;20582;52.196;20.952;2023-07-29T06:35:30;18.17;;;15.43;;
34317;SDS011;20582;52.196;20.952;2023-07-29T06:37:56;18.40;;;15.38;;
34317;SDS011;20582;52.196;20.952;2023-07-29T06:40:22;19.23;;;16.40;;
34317;SDS011;20582;52.196;20.952;2023-07-29T06:42:48;17.52;;;14.88;;
34317;SDS011;20582;52.196;20.952;2023-07-29T06:45:14;16.08;;;14.13;;
34317;SDS011;20582;52.196;20.952;2023-07-29T06:47:40;16.10;;;14.27;;
34317;SDS011;20582;52.196;20.952;2023-07-29T06:50:06;16.17;;;14.10;;
34317;SDS011;20582;52.196;20.952;2023-07-29T06:52:32;19.08;;;13.88;;
34317;SDS011;20582;52.196;20.952;2023-07-29T06:54:58;15.40;;;12.73;;
34317;SDS011;20582;52.196;20.952;2023-07-29T06:57:24;14.60;;;12.48;;
34317;SDS011;20582;52.196;20.952;2023-07-29T06:59:50;15.52;;;12.90;;
34317;SDS011;20582;52.196;20.952;2023-07-29T07:02:16;15.68;;;12.65;;
34317;SDS011;20582;52.196;20.952;2023-07-29T07:04:42;15.48;;;12.40;;
34317;SDS011;20582;52.196;20.952;2023-07-29T07:07:09;16.23;;;13.02;;
34317;SDS011;20582;52.196;20.952;2023-07-29T07:09:35;15.45;;;12.93;;
34317;SDS011;20582;52.196;20.952;2023-07-29T07:12:01;16.42;;;13.82;;
34317;SDS011;20582;52.196;20.952;2023-07-29T07:14:26;16.25;;;11.73;;
34317;SDS011;20582;52.196;20.952;2023-07-29T07:16:52;15.43;;;12.35;;
34317;SDS011;20582;52.196;20.952;2023-07-29T07:19:18;13.73;;;11.00;;
34317;SDS011;20582;52.196;20.952;2023-07-29T07:21:44;13.90;;;11.25;;
34317;SDS011;20582;52.196;20.952;2023-07-29T07:24:10;14.93;;;11.73;;
34317;SDS011;20582;52.196;20.952;2023-07-29T07:26:36;15.70;;;13.13;;
34317;SDS011;20582;52.196;20.952;2023-07-29T07:29:02;12.30;;;10.48;;
34317;SDS011;20582;52.196;20.952;2023-07-29T07:31:28;14.63;;;11.57;;
34317;SDS011;20582;52.196;20.952;2023-07-29T07:33:54;14.65;;;10.93;;
34317;SDS011;20582;52.196;20.952;2023-07-29T07:36:20;13.63;;;10.73;;
34317;SDS011;20582;52.196;20.952;2023-07-29T07:38:46;12.27;;;10.30;;
34317;SDS011;20582;52.196;20.952;2023-07-29T07:41:12;14.50;;;10.65;;
34317;SDS011;20582;52.196;20.952;2023-07-29T07:43:38;11.88;;;10.00;;
34317;SDS011;20582;52.196;20.952;2023-07-29T07:46:04;14.55;;;11.43;;
34317;SDS011;20582;52.196;20.952;2023-07-29T07:48:30;15.85;;;10.82;;
34317;SDS011;20582;52.196;20.952;2023-07-29T07:50:58;13.70;;;10.93;;
34317;SDS011;20582;52.196;20.952;2023-07-29T07:53:24;15.55;;;11.52;;
34317;SDS011;20582;52.196;20.952;2023-07-29T07:55:53;15.57;;;11.40;;
34317;SDS011;20582;52.196;20.952;2023-07-29T07:58:19;14.05;;;11.23;;
34317;SDS011;20582;52.196;20.952;2023-07-29T08:00:45;12.77;;;10.07;;
34317;SDS011;20582;52.196;20.952;2023-07-29T08:03:11;11.20;;;8.95;;
34317;SDS011;20582;52.196;20.952;2023-07-29T08:05:37;13.70;;;9.50;;
34317;SDS011;20582;52.196;20.952;2023-07-29T08:08:03;10.52;;;8.35;;
34317;SDS011;20582;52.196;20.952;2023-07-29T08:10:29;11.68;;;9.02;;
34317;SDS011;20582;52.196;20.952;2023-07-29T08:12:55;11.82;;;9.32;;
34317;SDS011;20582;52.196;20.952;2023-07-29T08:15:21;13.35;;;9.77;;
34317;SDS011;20582;52.196;20.952;2023-07-29T08:17:47;11.52;;;8.82;;
34317;SDS011;20582;52.196;20.952;2023-07-29T08:20:13;10.63;;;8.43;;
34317;SDS011;20582;52.196;20.952;2023-07-29T08:22:39;12.23;;;8.90;;
34317;SDS011;20582;52.196;20.952;2023-07-29T08:25:05;9.35;;;6.72;;
34317;SDS011;20582;52.196;20.952;2023-07-29T08:27:32;9.60;;;7.13;;
34317;SDS011;20582;52.196;20.952;2023-07-29T08:29:59;9.27;;;6.55;;
34317;SDS011;20582;52.196;20.952;2023-07-29T08:32:25;13.35;;;7.13;;
34317;SDS011;20582;52.196;20.952;2023-07-29T08:34:51;10.10;;;6.50;;
34317;SDS011;20582;52.196;20.952;2023-07-29T08:37:17;9.98;;;6.72;;
34317;SDS011;20582;52.196;20.952;2023-07-29T08:39:42;8.57;;;5.03;;
34317;SDS011;20582;52.196;20.952;2023-07-29T08:42:08;10.00;;;5.78;;
34317;SDS011;20582;52.196;20.952;2023-07-29T08:44:43;8.30;;;6.28;;
34317;SDS011;20582;52.196;20.952;2023-07-29T08:47:09;8.05;;;5.10;;
34317;SDS011;20582;52.196;20.952;2023-07-29T08:49:35;7.05;;;4.80;;
34317;SDS011;20582;52.196;20.952;2023-07-29T08:52:02;7.85;;;4.75;;
34317;SDS011;20582;52.196;20.952;2023-07-29T08:54:29;9.52;;;5.75;;
34317;SDS011;20582;52.196;20.952;2023-07-29T08:56:55;7.93;;;4.70;;
34317;SDS011;20582;52.196;20.952;2023-07-29T08:59:21;8.25;;;4.85;;
34317;SDS011;20582;52.196;20.952;2023-07-29T09:01:47;6.60;;;4.55;;
34317;SDS011;20582;52.196;20.952;2023-07-29T09:04:13;7.32;;;5.25;;
34317;SDS011;20582;52.196;20.952;2023-07-29T09:06:39;6.82;;;4.07;;
34317;SDS011;20582;52.196;20.952;2023-07-29T09:09:08;6.03;;;4.28;;
34317;SDS011;20582;52.196;20.952;2023-07-29T09:11:34;6.32;;;3.63;;
34317;SDS011;20582;52.196;20.952;2023-07-29T09:14:00;7.03;;;4.40;;
34317;SDS011;20582;52.196;20.952;2023-07-29T09:16:26;5.78;;;4.10;;
34317;SDS011;20582;52.196;20.952;2023-07-29T09:18:52;6.15;;;4.28;;
34317;SDS011;20582;52.196;20.952;2023-07-29T09:21:23;8.27;;;4.55;;
34317;SDS011;20582;52.196;20.952;2023-07-29T09:23:51;8.70;;;3.70;;
34317;SDS011;20582;52.196;20.952;2023-07-29T09:26:24;6.18;;;3.53;;
34317;SDS011;20582;52.196;20.952;2023-07-29T09:28:53;5.22;;;3.80;;
34317;SDS011;20582;52.196;20.952;2023-07-29T09:31:20;6.03;;;3.90;;
34317;SDS011;20582;52.196;20.952;2023-07-29T09:33:47;3.53;;;2.70;;
34317;SDS011;20582;52.196;20.952;2023-07-29T09:36:13;5.75;;;2.80;;
34317;SDS011;20582;52.196;20.952;2023-07-29T09:38:39;3.15;;;2.72;;
34317;SDS011;20582;52.196;20.952;2023-07-29T09:41:05;3.88;;;2.70;;
34317;SDS011;20582;52.196;20.952;2023-07-29T09:43:32;3.35;;;3.00;;
34317;SDS011;20582;52.196;20.952;2023-07-29T09:46:02;4.13;;;2.70;;
34317;SDS011;20582;52.196;20.952;2023-07-29T09:50:54;3.65;;;2.70;;
34317;SDS011;20582;52.196;20.952;2023-07-29T09:53:20;4.65;;;2.88;;
34317;SDS011;20582;52.196;20.952;2023-07-29T09:55:47;4.38;;;2.80;;
34317;SDS011;20582;52.196;20.952;2023-07-29T09:58:13;6.20;;;2.75;;
34317;SDS011;20582;52.196;20.952;2023-07-29T10:00:39;3.20;;;2.85;;
34317;SDS011;20582;52.196;20.952;2023-07-29T10:03:06;3.88;;;3.08;;
34317;SDS011;20582;52.196;20.952;2023-07-29T10:05:32;4.35;;;2.92;;
34317;SDS011;20582;52.196;20.952;2023-07-29T10:08:03;3.45;;;2.80;;
34317;SDS011;20582;52.196;20.952;2023-07-29T10:10:29;4.45;;;2.85;;
34317;SDS011;20582;52.196;20.952;2023-07-29T10:12:56;6.55;;;2.95;;
34317;SDS011;20582;52.196;20.952;2023-07-29T10:15:22;4.60;;;2.75;;
34317;SDS011;20582;52.196;20.952;2023-07-29T10:17:49;4.00;;;2.90;;
34317;SDS011;20582;52.196;20.952;2023-07-29T10:20:15;3.08;;;2.63;;
34317;SDS011;20582;52.196;20.952;2023-07-29T10:22:42;3.47;;;2.78;;
34317;SDS011;20582;52.196;20.952;2023-07-29T10:27:41;3.17;;;2.88;;
34317;SDS011;20582;52.196;20.952;2023-07-29T10:30:08;4.47;;;3.00;;
34317;SDS011;20582;52.196;20.952;2023-07-29T10:32:34;3.88;;;3.00;;
34317;SDS011;20582;52.196;20.952;2023-07-29T10:35:00;4.75;;;3.30;;
34317;SDS011;20582;52.196;20.952;2023-07-29T10:37:26;3.22;;;2.92;;
34317;SDS011;20582;52.196;20.952;2023-07-29T10:39:53;5.80;;;2.90;;
34317;SDS011;20582;52.196;20.952;2023-07-29T10:42:19;5.45;;;2.78;;
34317;SDS011;20582;52.196;20.952;2023-07-29T10:44:46;5.85;;;3.08;;
34317;SDS011;20582;52.196;20.952;2023-07-29T10:47:14;2.95;;;2.63;;
34317;SDS011;20582;52.196;20.952;2023-07-29T10:49:41;3.05;;;2.75;;
34317;SDS011;20582;52.196;20.952;2023-07-29T10:52:07;4.25;;;3.33;;
34317;SDS011;20582;52.196;20.952;2023-07-29T10:54:43;4.32;;;3.25;;
34317;SDS011;20582;52.196;20.952;2023-07-29T10:57:12;3.10;;;2.80;;
34317;SDS011;20582;52.196;20.952;2023-07-29T10:59:39;3.38;;;2.70;;
34317;SDS011;20582;52.196;20.952;2023-07-29T11:02:12;4.40;;;2.80;;
34317;SDS011;20582;52.196;20.952;2023-07-29T11:05:00;3.63;;;2.78;;
34317;SDS011;20582;52.196;20.952;2023-07-29T11:07:30;3.95;;;2.97;;
34317;SDS011;20582;52.196;20.952;2023-07-29T11:10:14;3.55;;;2.80;;
34317;SDS011;20582;52.196;20.952;2023-07-29T11:20:03;3.55;;;2.80;;
34317;SDS011;20582;52.196;20.952;2023-07-29T11:22:30;3.30;;;3.00;;
34317;SDS011;20582;52.196;20.952;2023-07-29T11:24:56;3.72;;;2.70;;
34317;SDS011;20582;52.196;20.952;2023-07-29T11:27:22;4.38;;;2.95;;
34317;SDS011;20582;52.196;20.952;2023-07-29T11:29:48;10.13;;;7.35;;
34317;SDS011;20582;52.196;20.952;2023-07-29T11:32:15;3.53;;;3.22;;
34317;SDS011;20582;52.196;20.952;2023-07-29T11:34:41;3.50;;;3.20;;
34317;SDS011;20582;52.196;20.952;2023-07-29T11:37:09;5.47;;;3.78;;
34317;SDS011;20582;52.196;20.952;2023-07-29T11:39:39;3.92;;;3.53;;
34317;SDS011;20582;52.196;20.952;2023-07-29T11:42:06;5.32;;;3.65;;
34317;SDS011;20582;52.196;20.952;2023-07-29T11:44:32;3.85;;;3.55;;
34317;SDS011;20582;52.196;20.952;2023-07-29T11:46:58;4.63;;;3.90;;
34317;SDS011;20582;52.196;20.952;2023-07-29T11:49:24;3.40;;;3.10;;
34317;SDS011;20582;52.196;20.952;2023-07-29T11:51:50;3.60;;;3.30;;
34317;SDS011;20582;52.196;20.952;2023-07-29T11:54:16;4.85;;;3.42;;
34317;SDS011;20582;52.196;20.952;2023-07-29T11:56:46;3.30;;;3.00;;
34317;SDS011;20582;52.196;20.952;2023-07-29T11:59:12;3.67;;;3.30;;
34317;SDS011;20582;52.196;20.952;2023-07-29T12:01:38;3.92;;;3.40;;
34317;SDS011;20582;52.196;20.952;2023-07-29T12:04:04;3.40;;;3.10;;
34317;SDS011;20582;52.196;20.952;2023-07-29T12:06:30;3.50;;;3.20;;
34317;SDS011;20582;52.196;20.952;2023-07-29T12:08:56;4.38;;;3.20;;
34317;SDS011;20582;52.196;20.952;2023-07-29T12:11:23;3.22;;;2.92;;
34317;SDS011;20582;52.196;20.952;2023-07-29T12:13:49;5.22;;;3.35;;
34317;SDS011;20582;52.196;20.952;2023-07-29T12:16:18;3.08;;;2.78;;
34317;SDS011;20582;52.196;20.952;2023-07-29T12:18:44;4.75;;;2.80;;
34317;SDS011;20582;52.196;20.952;2023-07-29T12:21:10;6.18;;;2.53;;
34317;SDS011;20582;52.196;20.952;2023-07-29T12:23:36;4.30;;;2.70;;
34317;SDS011;20582;52.196;20.952;2023-07-29T12:26:02;3.22;;;2.70;;
34317;SDS011;20582;52.196;20.952;2023-07-29T12:28:28;4.78;;;3.10;;
34317;SDS011;20582;52.196;20.952;2023-07-29T12:30:54;3.65;;;2.97;;
34317;SDS011;20582;52.196;20.952;2023-07-29T12:35:56;7.43;;;3.47;;
34317;SDS011;20582;52.196;20.952;2023-07-29T12:38:22;3.97;;;2.70;;
34317;SDS011;20582;52.196;20.952;2023-07-29T12:40:48;4.50;;;2.70;;
34317;SDS011;20582;52.196;20.952;2023-07-29T12:43:14;4.45;;;3.05;;
34317;SDS011;20582;52.196;20.952;2023-07-29T12:45:40;4.15;;;2.90;;
34317;SDS011;20582;52.196;20.952;2023-07-29T12:48:07;4.25;;;2.58;;
34317;SDS011;20582;52.196;20.952;2023-07-29T12:50:33;7.25;;;4.25;;
34317;SDS011;20582;52.196;20.952;2023-07-29T12:52:59;6.85;;;5.28;;
34317;SDS011;20582;52.196;20.952;2023-07-29T12:55:25;3.70;;;2.80;;
34317;SDS011;20582;52.196;20.952;2023-07-29T12:57:51;4.28;;;2.60;;
34317;SDS011;20582;52.196;20.952;2023-07-29T13:00:17;4.20;;;2.92;;
34317;SDS011;20582;52.196;20.952;2023-07-29T13:02:43;4.20;;;2.28;;
34317;SDS011;20582;52.196;20.952;2023-07-29T13:05:09;4.22;;;2.30;;
34317;SDS011;20582;52.196;20.952;2023-07-29T13:07:36;2.47;;;2.20;;
34317;SDS011;20582;52.196;20.952;2023-07-29T13:10:03;3.58;;;2.80;;
34317;SDS011;20582;52.196;20.952;2023-07-29T13:12:29;4.70;;;2.63;;
34317;SDS011;20582;52.196;20.952;2023-07-29T13:14:55;3.10;;;2.70;;
34317;SDS011;20582;52.196;20.952;2023-07-29T13:17:21;3.60;;;2.65;;
34317;SDS011;20582;52.196;20.952;2023-07-29T13:19:47;6.93;;;2.80;;
34317;SDS011;20582;52.196;20.952;2023-07-29T13:22:13;4.28;;;2.70;;
34317;SDS011;20582;52.196;20.952;2023-07-29T13:24:39;5.18;;;2.65;;
34317;SDS011;20582;52.196;20.952;2023-07-29T13:27:05;5.68;;;2.67;;
34317;SDS011;20582;52.196;20.952;2023-07-29T13:29:32;3.83;;;3.03;;
34317;SDS011;20582;52.196;20.952;2023-07-29T13:31:57;3.50;;;2.60;;
34317;SDS011;20582;52.196;20.952;2023-07-29T13:34:23;5.90;;;2.63;;
34317;SDS011;20582;52.196;20.952;2023-07-29T13:36:49;3.67;;;2.97;;
34317;SDS011;20582;52.196;20.952;2023-07-29T13:39:15;4.88;;;2.85;;
34317;SDS011;20582;52.196;20.952;2023-07-29T13:41:41;4.43;;;2.83;;
34317;SDS011;20582;52.196;20.952;2023-07-29T13:44:07;3.63;;;2.70;;
34317;SDS011;20582;52.196;20.952;2023-07-29T13:46:33;4.38;;;2.70;;
34317;SDS011;20582;52.196;20.952;2023-07-29T13:48:59;3.90;;;3.15;;
34317;SDS011;20582;52.196;20.952;2023-07-29T13:51:26;6.50;;;3.05;;
34317;SDS011;20582;52.196;20.952;2023-07-29T13:53:52;3.75;;;2.70;;
34317;SDS011;20582;52.196;20.952;2023-07-29T13:56:18;3.35;;;2.50;;
34317;SDS011;20582;52.196;20.952;2023-07-29T13:58:44;4.28;;;2.60;;
34317;SDS011;20582;52.196;20.952;2023-07-29T14:01:10;5.75;;;2.40;;
34317;SDS011;20582;52.196;20.952;2023-07-29T14:03:36;4.85;;;2.80;;
34317;SDS011;20582;52.196;20.952;2023-07-29T14:06:02;3.72;;;3.00;;
34317;SDS011;20582;52.196;20.952;2023-07-29T14:08:28;9.95;;;4.47;;
34317;SDS011;20582;52.196;20.952;2023-07-29T14:10:54;4.63;;;2.80;;
34317;SDS011;20582;52.196;20.952;2023-07-29T14:13:20;4.78;;;2.88;;
34317;SDS011;20582;52.196;20.952;2023-07-29T14:15:46;2.95;;;2.65;;
34317;SDS011;20582;52.196;20.952;2023-07-29T14:18:12;4.15;;;2.92;;
34317;SDS011;20582;52.196;20.952;2023-07-29T14:20:38;4.00;;;2.70;;
34317;SDS011;20582;52.196;20.952;2023-07-29T14:23:04;6.75;;;2.85;;
34317;SDS011;20582;52.196;20.952;2023-07-29T14:25:30;3.83;;;2.63;;
34317;SDS011;20582;52.196;20.952;2023-07-29T14:27:56;4.38;;;2.70;;
34317;SDS011;20582;52.196;20.952;2023-07-29T14:30:22;3.75;;;2.72;;
34317;SDS011;20582;52.196;20.952;2023-07-29T14:32:48;5.05;;;2.80;;
34317;SDS011;20582;52.196;20.952;2023-07-29T14:35:14;7.85;;;3.35;;
34317;SDS011;20582;52.196;20.952;2023-07-29T14:37:40;5.28;;;2.80;;